sensor_id;sensor_type;location;lat;lon;timestamp;temperature;humidity
20698;DHT22;10508;50.956;4.640;2022-08-21T00:02:19;16.00;99.90
20698;DHT22;10508;50.956;4.640;2022-08-21T00:04:46;16.00;99.90
20698;DHT22;10508;50.956;4.640;2022-08-21T00:07:12;15.90;99.90
20698;DHT22;10508;50.956;4.640;2022-08-21T00:09:37;15.80;99.90
20698;DHT22;10508;50.956;4.640;2022-08-21T00:12:04;15.90;99.90
20698;DHT22;10508;50.956;4.640;2022-08-21T00:14:30;15.90;99.90
20698;DHT22;10508;50.956;4.640;2022-08-21T00:16:56;16.00;99.90
20698;DHT22;10508;50.956;4.640;2022-08-21T00:19:22;16.10;99.90
20698;DHT22;10508;50.956;4.640;2022-08-21T00:21:50;15.90;99.90
20698;DHT22;10508;50.956;4.640;2022-08-21T00:24:18;15.90;99.90
20698;DHT22;10508;50.956;4.640;2022-08-21T00:26:44;15.90;99.90
20698;DHT22;10508;50.956;4.640;2022-08-21T00:29:09;15.70;99.90
20698;DHT22;10508;50.956;4.640;2022-08-21T00:31:35;15.80;99.90
20698;DHT22;10508;50.956;4.640;2022-08-21T00:34:01;15.70;99.90
20698;DHT22;10508;50.956;4.640;2022-08-21T00:36:28;15.60;99.90
20698;DHT22;10508;50.956;4.640;2022-08-21T00:38:54;15.60;99.90
20698;DHT22;10508;50.956;4.640;2022-08-21T00:41:19;15.60;99.90
20698;DHT22;10508;50.956;4.640;2022-08-21T00:43:45;15.50;99.90
20698;DHT22;10508;50.956;4.640;2022-08-21T00:46:11;15.70;99.90
20698;DHT22;10508;50.956;4.640;2022-08-21T00:48:36;15.60;99.90
20698;DHT22;10508;50.956;4.640;2022-08-21T00:51:10;15.50;99.90
20698;DHT22;10508;50.956;4.640;2022-08-21T00:53:39;15.50;99.90
20698;DHT22;10508;50.956;4.640;2022-08-21T00:56:07;15.60;99.90
20698;DHT22;10508;50.956;4.640;2022-08-21T00:58:34;15.60;99.90
20698;DHT22;10508;50.956;4.640;2022-08-21T01:01:03;15.60;99.90
20698;DHT22;10508;50.956;4.640;2022-08-21T01:03:29;15.70;99.90
20698;DHT22;10508;50.956;4.640;2022-08-21T01:05:54;15.60;99.90
20698;DHT22;10508;50.956;4.640;2022-08-21T01:08:21;15.40;99.90
20698;DHT22;10508;50.956;4.640;2022-08-21T01:10:49;15.30;99.90
20698;DHT22;10508;50.956;4.640;2022-08-21T01:13:17;15.30;99.90
20698;DHT22;10508;50.956;4.640;2022-08-21T01:15:46;15.30;99.90
20698;DHT22;10508;50.956;4.640;2022-08-21T01:18:15;15.20;99.90
20698;DHT22;10508;50.956;4.640;2022-08-21T01:20:44;15.20;99.90
20698;DHT22;10508;50.956;4.640;2022-08-21T01:23:10;15.30;99.90
20698;DHT22;10508;50.956;4.640;2022-08-21T01:25:36;15.10;99.90
20698;DHT22;10508;50.956;4.640;2022-08-21T01:28:13;14.90;99.90
20698;DHT22;10508;50.956;4.640;2022-08-21T01:30:40;14.90;99.90
20698;DHT22;10508;50.956;4.640;2022-08-21T01:33:07;14.90;99.90
20698;DHT22;10508;50.956;4.640;2022-08-21T01:35:33;14.90;99.90
20698;DHT22;10508;50.956;4.640;2022-08-21T01:37:59;14.90;99.90
20698;DHT22;10508;50.956;4.640;2022-08-21T01:40:25;15.00;99.90
20698;DHT22;10508;50.956;4.640;2022-08-21T01:42:50;15.00;99.90
20698;DHT22;10508;50.956;4.640;2022-08-21T01:45:16;14.90;99.90
20698;DHT22;10508;50.956;4.640;2022-08-21T01:47:43;14.90;99.90
20698;DHT22;10508;50.956;4.640;2022-08-21T01:50:12;14.90;99.90
20698;DHT22;10508;50.956;4.640;2022-08-21T01:52:38;15.00;99.90
20698;DHT22;10508;50.956;4.640;2022-08-21T01:55:07;14.90;99.90
20698;DHT22;10508;50.956;4.640;2022-08-21T01:57:33;14.90;99.90
20698;DHT22;10508;50.956;4.640;2022-08-21T01:59:59;14.80;99.90
20698;DHT22;10508;50.956;4.640;2022-08-21T02:02:25;14.70;99.90
20698;DHT22;10508;50.956;4.640;2022-08-21T02:04:50;14.80;99.90
20698;DHT22;10508;50.956;4.640;2022-08-21T02:07:16;14.90;99.90
20698;DHT22;10508;50.956;4.640;2022-08-21T02:09:41;14.90;99.90
20698;DHT22;10508;50.956;4.640;2022-08-21T02:12:09;14.70;99.90
20698;DHT22;10508;50.956;4.640;2022-08-21T02:14:34;14.70;99.90
20698;DHT22;10508;50.956;4.640;2022-08-21T02:17:01;14.60;99.90
20698;DHT22;10508;50.956;4.640;2022-08-21T02:19:26;14.50;99.90
20698;DHT22;10508;50.956;4.640;2022-08-21T02:21:52;14.50;99.90
20698;DHT22;10508;50.956;4.640;2022-08-21T02:24:18;14.50;99.90
20698;DHT22;10508;50.956;4.640;2022-08-21T02:26:43;14.70;99.90
20698;DHT22;10508;50.956;4.640;2022-08-21T02:29:09;14.90;99.90
20698;DHT22;10508;50.956;4.640;2022-08-21T02:31:35;14.80;99.90
20698;DHT22;10508;50.956;4.640;2022-08-21T02:34:00;14.80;99.90
20698;DHT22;10508;50.956;4.640;2022-08-21T02:36:26;14.60;99.90
20698;DHT22;10508;50.956;4.640;2022-08-21T02:38:52;14.60;99.90
20698;DHT22;10508;50.956;4.640;2022-08-21T02:41:20;14.60;99.90
20698;DHT22;10508;50.956;4.640;2022-08-21T02:43:47;14.50;99.90
20698;DHT22;10508;50.956;4.640;2022-08-21T02:46:15;14.40;99.90
20698;DHT22;10508;50.956;4.640;2022-08-21T02:48:41;14.50;99.90
20698;DHT22;10508;50.956;4.640;2022-08-21T02:51:14;14.60;99.90
20698;DHT22;10508;50.956;4.640;2022-08-21T02:53:41;14.70;99.90
20698;DHT22;10508;50.956;4.640;2022-08-21T02:56:09;14.70;99.90
20698;DHT22;10508;50.956;4.640;2022-08-21T02:58:44;14.70;99.90
20698;DHT22;10508;50.956;4.640;2022-08-21T03:01:11;14.60;99.90
20698;DHT22;10508;50.956;4.640;2022-08-21T03:03:38;14.60;99.90
20698;DHT22;10508;50.956;4.640;2022-08-21T03:06:05;14.40;99.90
20698;DHT22;10508;50.956;4.640;2022-08-21T03:08:31;14.40;99.90
20698;DHT22;10508;50.956;4.640;2022-08-21T03:10:57;14.30;99.90
20698;DHT22;10508;50.956;4.640;2022-08-21T03:13:25;14.30;99.90
20698;DHT22;10508;50.956;4.640;2022-08-21T03:15:50;14.20;99.90
20698;DHT22;10508;50.956;4.640;2022-08-21T03:18:16;14.20;99.90
20698;DHT22;10508;50.956;4.640;2022-08-21T03:20:43;14.20;99.90
20698;DHT22;10508;50.956;4.640;2022-08-21T03:23:10;14.20;99.90
20698;DHT22;10508;50.956;4.640;2022-08-21T03:25:37;14.20;99.90
20698;DHT22;10508;50.956;4.640;2022-08-21T03:28:08;14.10;99.90
20698;DHT22;10508;50.956;4.640;2022-08-21T03:30:35;14.00;99.90
20698;DHT22;10508;50.956;4.640;2022-08-21T03:33:02;14.10;99.90
20698;DHT22;10508;50.956;4.640;2022-08-21T03:35:28;14.10;99.90
20698;DHT22;10508;50.956;4.640;2022-08-21T03:37:55;14.10;99.90
20698;DHT22;10508;50.956;4.640;2022-08-21T03:40:21;14.00;99.90
20698;DHT22;10508;50.956;4.640;2022-08-21T03:42:48;14.20;99.90
20698;DHT22;10508;50.956;4.640;2022-08-21T03:45:16;14.20;99.90
20698;DHT22;10508;50.956;4.640;2022-08-21T03:50:22;14.10;99.90
20698;DHT22;10508;50.956;4.640;2022-08-21T03:52:48;14.10;99.90
20698;DHT22;10508;50.956;4.640;2022-08-21T03:55:14;13.90;99.90
20698;DHT22;10508;50.956;4.640;2022-08-21T03:57:40;13.80;99.90
20698;DHT22;10508;50.956;4.640;2022-08-21T04:00:07;13.80;99.90
20698;DHT22;10508;50.956;4.640;2022-08-21T04:02:35;13.80;99.90
20698;DHT22;10508;50.956;4.640;2022-08-21T04:05:01;13.80;99.90
20698;DHT22;10508;50.956;4.640;2022-08-21T04:07:26;13.90;99.90
20698;DHT22;10508;50.956;4.640;2022-08-21T04:09:52;14.00;99.90
20698;DHT22;10508;50.956;4.640;2022-08-21T04:12:18;14.00;99.90
20698;DHT22;10508;50.956;4.640;2022-08-21T04:14:44;14.00;99.90
20698;DHT22;10508;50.956;4.640;2022-08-21T04:17:10;14.00;99.90
20698;DHT22;10508;50.956;4.640;2022-08-21T04:19:35;13.90;99.90
20698;DHT22;10508;50.956;4.640;2022-08-21T04:22:01;13.90;99.90
20698;DHT22;10508;50.956;4.640;2022-08-21T04:24:26;13.90;99.90
20698;DHT22;10508;50.956;4.640;2022-08-21T04:26:52;13.70;99.90
20698;DHT22;10508;50.956;4.640;2022-08-21T04:29:18;13.60;99.90
20698;DHT22;10508;50.956;4.640;2022-08-21T04:31:44;13.60;99.90
20698;DHT22;10508;50.956;4.640;2022-08-21T04:34:10;13.60;99.90
20698;DHT22;10508;50.956;4.640;2022-08-21T04:36:35;13.60;99.90
20698;DHT22;10508;50.956;4.640;2022-08-21T04:39:01;13.70;99.90
20698;DHT22;10508;50.956;4.640;2022-08-21T04:41:27;13.70;99.90
20698;DHT22;10508;50.956;4.640;2022-08-21T04:43:53;13.70;99.90
20698;DHT22;10508;50.956;4.640;2022-08-21T04:46:21;13.60;99.90
20698;DHT22;10508;50.956;4.640;2022-08-21T04:48:46;13.60;99.90
20698;DHT22;10508;50.956;4.640;2022-08-21T04:51:23;13.50;99.90
20698;DHT22;10508;50.956;4.640;2022-08-21T04:56:33;13.50;99.90
20698;DHT22;10508;50.956;4.640;2022-08-21T04:59:02;13.50;99.90
20698;DHT22;10508;50.956;4.640;2022-08-21T05:01:32;13.70;99.90
20698;DHT22;10508;50.956;4.640;2022-08-21T05:04:01;13.70;99.90
20698;DHT22;10508;50.956;4.640;2022-08-21T05:06:31;13.80;99.90
20698;DHT22;10508;50.956;4.640;2022-08-21T05:08:58;13.90;99.90
20698;DHT22;10508;50.956;4.640;2022-08-21T05:11:25;13.80;99.90
20698;DHT22;10508;50.956;4.640;2022-08-21T05:13:50;13.80;99.90
20698;DHT22;10508;50.956;4.640;2022-08-21T05:16:16;13.90;99.90
20698;DHT22;10508;50.956;4.640;2022-08-21T05:18:42;14.00;99.90
20698;DHT22;10508;50.956;4.640;2022-08-21T05:21:08;14.00;99.90
20698;DHT22;10508;50.956;4.640;2022-08-21T05:23:35;14.00;99.90
20698;DHT22;10508;50.956;4.640;2022-08-21T05:26:01;14.00;99.90
20698;DHT22;10508;50.956;4.640;2022-08-21T05:28:26;14.20;99.90
20698;DHT22;10508;50.956;4.640;2022-08-21T05:30:53;14.10;99.90
20698;DHT22;10508;50.956;4.640;2022-08-21T05:33:18;14.20;99.90
20698;DHT22;10508;50.956;4.640;2022-08-21T05:35:44;14.10;99.90
20698;DHT22;10508;50.956;4.640;2022-08-21T05:38:10;14.20;99.90
20698;DHT22;10508;50.956;4.640;2022-08-21T05:40:36;14.30;99.90
20698;DHT22;10508;50.956;4.640;2022-08-21T05:43:02;14.40;99.90
20698;DHT22;10508;50.956;4.640;2022-08-21T05:45:31;14.40;99.90
20698;DHT22;10508;50.956;4.640;2022-08-21T05:47:57;14.40;99.90
20698;DHT22;10508;50.956;4.640;2022-08-21T05:50:23;14.50;99.90
20698;DHT22;10508;50.956;4.640;2022-08-21T05:52:49;14.50;99.90
20698;DHT22;10508;50.956;4.640;2022-08-21T05:55:15;14.70;99.90
20698;DHT22;10508;50.956;4.640;2022-08-21T05:57:40;14.80;99.90
20698;DHT22;10508;50.956;4.640;2022-08-21T06:00:08;14.90;99.90
20698;DHT22;10508;50.956;4.640;2022-08-21T06:02:38;15.10;99.90
20698;DHT22;10508;50.956;4.640;2022-08-21T06:05:04;15.20;99.90
20698;DHT22;10508;50.956;4.640;2022-08-21T06:07:30;15.30;99.90
20698;DHT22;10508;50.956;4.640;2022-08-21T06:09:56;15.40;99.90
20698;DHT22;10508;50.956;4.640;2022-08-21T06:12:21;15.60;99.90
20698;DHT22;10508;50.956;4.640;2022-08-21T06:14:47;15.70;99.90
20698;DHT22;10508;50.956;4.640;2022-08-21T06:17:13;15.80;99.90
20698;DHT22;10508;50.956;4.640;2022-08-21T06:19:40;15.90;99.90
20698;DHT22;10508;50.956;4.640;2022-08-21T06:22:06;16.00;99.90
20698;DHT22;10508;50.956;4.640;2022-08-21T06:24:31;16.10;99.90
20698;DHT22;10508;50.956;4.640;2022-08-21T06:26:57;16.10;99.90
20698;DHT22;10508;50.956;4.640;2022-08-21T06:29:23;16.20;99.90
20698;DHT22;10508;50.956;4.640;2022-08-21T06:31:50;16.30;99.90
20698;DHT22;10508;50.956;4.640;2022-08-21T06:34:17;16.30;99.90
20698;DHT22;10508;50.956;4.640;2022-08-21T06:36:43;16.40;99.90
20698;DHT22;10508;50.956;4.640;2022-08-21T06:39:09;16.50;99.90
20698;DHT22;10508;50.956;4.640;2022-08-21T06:41:35;16.70;99.90
20698;DHT22;10508;50.956;4.640;2022-08-21T06:44:01;16.70;99.90
20698;DHT22;10508;50.956;4.640;2022-08-21T06:46:29;16.80;99.90
20698;DHT22;10508;50.956;4.640;2022-08-21T06:48:56;16.90;99.90
20698;DHT22;10508;50.956;4.640;2022-08-21T06:51:22;16.90;99.90
20698;DHT22;10508;50.956;4.640;2022-08-21T06:53:48;16.90;99.90
20698;DHT22;10508;50.956;4.640;2022-08-21T06:56:14;17.00;99.90
20698;DHT22;10508;50.956;4.640;2022-08-21T06:58:40;17.00;99.90
20698;DHT22;10508;50.956;4.640;2022-08-21T07:01:06;17.10;99.90
20698;DHT22;10508;50.956;4.640;2022-08-21T07:03:34;17.20;99.90
20698;DHT22;10508;50.956;4.640;2022-08-21T07:06:01;17.40;99.90
20698;DHT22;10508;50.956;4.640;2022-08-21T07:08:27;17.40;99.90
20698;DHT22;10508;50.956;4.640;2022-08-21T07:10:56;17.30;99.90
20698;DHT22;10508;50.956;4.640;2022-08-21T07:13:22;17.40;99.90
20698;DHT22;10508;50.956;4.640;2022-08-21T07:15:48;17.40;99.90
20698;DHT22;10508;50.956;4.640;2022-08-21T07:18:14;17.50;99.90
20698;DHT22;10508;50.956;4.640;2022-08-21T07:20:41;17.60;99.90
20698;DHT22;10508;50.956;4.640;2022-08-21T07:23:12;17.70;99.90
20698;DHT22;10508;50.956;4.640;2022-08-21T07:25:38;17.80;99.90
20698;DHT22;10508;50.956;4.640;2022-08-21T07:28:04;17.80;99.90
20698;DHT22;10508;50.956;4.640;2022-08-21T07:30:30;17.80;99.90
20698;DHT22;10508;50.956;4.640;2022-08-21T07:32:56;17.90;99.90
20698;DHT22;10508;50.956;4.640;2022-08-21T07:35:23;17.90;99.90
20698;DHT22;10508;50.956;4.640;2022-08-21T07:37:48;18.00;99.90
20698;DHT22;10508;50.956;4.640;2022-08-21T07:40:14;18.10;99.90
20698;DHT22;10508;50.956;4.640;2022-08-21T07:42:45;18.20;99.90
20698;DHT22;10508;50.956;4.640;2022-08-21T07:45:12;18.30;99.90
20698;DHT22;10508;50.956;4.640;2022-08-21T07:47:38;18.30;99.90
20698;DHT22;10508;50.956;4.640;2022-08-21T07:50:05;18.40;99.90
20698;DHT22;10508;50.956;4.640;2022-08-21T07:52:32;18.50;99.90
20698;DHT22;10508;50.956;4.640;2022-08-21T07:54:58;18.50;99.90
20698;DHT22;10508;50.956;4.640;2022-08-21T07:57:24;18.60;99.90
20698;DHT22;10508;50.956;4.640;2022-08-21T07:59:50;18.70;99.90
20698;DHT22;10508;50.956;4.640;2022-08-21T08:02:29;18.70;99.90
20698;DHT22;10508;50.956;4.640;2022-08-21T08:04:59;18.90;99.90
20698;DHT22;10508;50.956;4.640;2022-08-21T08:07:25;19.10;99.90
20698;DHT22;10508;50.956;4.640;2022-08-21T08:09:51;19.30;99.90
20698;DHT22;10508;50.956;4.640;2022-08-21T08:12:17;19.50;99.90
20698;DHT22;10508;50.956;4.640;2022-08-21T08:14:43;19.70;99.90
20698;DHT22;10508;50.956;4.640;2022-08-21T08:17:09;19.80;99.90
20698;DHT22;10508;50.956;4.640;2022-08-21T08:19:35;19.90;99.90
20698;DHT22;10508;50.956;4.640;2022-08-21T08:22:00;19.90;99.90
20698;DHT22;10508;50.956;4.640;2022-08-21T08:24:26;20.00;99.90
20698;DHT22;10508;50.956;4.640;2022-08-21T08:26:52;20.10;99.90
20698;DHT22;10508;50.956;4.640;2022-08-21T08:29:20;20.30;99.90
20698;DHT22;10508;50.956;4.640;2022-08-21T08:31:46;20.40;99.90
20698;DHT22;10508;50.956;4.640;2022-08-21T08:34:11;20.50;99.90
20698;DHT22;10508;50.956;4.640;2022-08-21T08:36:37;20.50;99.90
20698;DHT22;10508;50.956;4.640;2022-08-21T08:39:04;20.50;99.90
20698;DHT22;10508;50.956;4.640;2022-08-21T08:41:31;20.50;99.90
20698;DHT22;10508;50.956;4.640;2022-08-21T08:44:03;20.40;99.90
20698;DHT22;10508;50.956;4.640;2022-08-21T08:46:44;20.40;99.90
20698;DHT22;10508;50.956;4.640;2022-08-21T08:49:24;20.60;99.90
20698;DHT22;10508;50.956;4.640;2022-08-21T08:51:57;20.70;99.90
20698;DHT22;10508;50.956;4.640;2022-08-21T08:54:41;20.80;99.90
20698;DHT22;10508;50.956;4.640;2022-08-21T08:57:15;20.90;99.90
20698;DHT22;10508;50.956;4.640;2022-08-21T08:59:45;21.10;99.90
20698;DHT22;10508;50.956;4.640;2022-08-21T09:02:13;21.30;99.90
20698;DHT22;10508;50.956;4.640;2022-08-21T09:04:39;21.50;99.90
20698;DHT22;10508;50.956;4.640;2022-08-21T09:10:29;21.80;99.90
20698;DHT22;10508;50.956;4.640;2022-08-21T09:13:19;22.00;99.40
20698;DHT22;10508;50.956;4.640;2022-08-21T09:16:50;22.30;98.30
20698;DHT22;10508;50.956;4.640;2022-08-21T09:19:04;22.20;96.70
20698;DHT22;10508;50.956;4.640;2022-08-21T09:21:45;22.20;97.90
20698;DHT22;10508;50.956;4.640;2022-08-21T09:29:26;22.80;95.90
20698;DHT22;10508;50.956;4.640;2022-08-21T09:31:55;22.80;94.80
20698;DHT22;10508;50.956;4.640;2022-08-21T09:34:30;22.60;96.20
20698;DHT22;10508;50.956;4.640;2022-08-21T09:36:57;22.60;95.40
20698;DHT22;10508;50.956;4.640;2022-08-21T09:42:05;23.40;95.50
20698;DHT22;10508;50.956;4.640;2022-08-21T09:44:33;23.70;93.90
20698;DHT22;10508;50.956;4.640;2022-08-21T09:47:01;23.80;93.00
20698;DHT22;10508;50.956;4.640;2022-08-21T09:49:33;24.00;92.90
20698;DHT22;10508;50.956;4.640;2022-08-21T09:51:59;23.90;92.50
20698;DHT22;10508;50.956;4.640;2022-08-21T09:54:39;24.00;92.70
20698;DHT22;10508;50.956;4.640;2022-08-21T09:59:53;24.20;93.60
20698;DHT22;10508;50.956;4.640;2022-08-21T10:02:30;23.90;92.70
20698;DHT22;10508;50.956;4.640;2022-08-21T10:04:58;23.70;93.60
20698;DHT22;10508;50.956;4.640;2022-08-21T10:07:27;23.50;92.90
20698;DHT22;10508;50.956;4.640;2022-08-21T10:13:00;23.00;93.40
20698;DHT22;10508;50.956;4.640;2022-08-21T10:21:16;22.80;93.20
20698;DHT22;10508;50.956;4.640;2022-08-21T10:23:54;22.90;93.80
20698;DHT22;10508;50.956;4.640;2022-08-21T10:40:13;24.00;91.50
20698;DHT22;10508;50.956;4.640;2022-08-21T10:47:57;25.00;90.70
20698;DHT22;10508;50.956;4.640;2022-08-21T10:50:48;25.10;90.00
20698;DHT22;10508;50.956;4.640;2022-08-21T10:56:19;25.20;90.10
20698;DHT22;10508;50.956;4.640;2022-08-21T11:01:43;25.40;90.00
20698;DHT22;10508;50.956;4.640;2022-08-21T11:04:24;25.40;90.00
20698;DHT22;10508;50.956;4.640;2022-08-21T11:06:57;25.10;89.50
20698;DHT22;10508;50.956;4.640;2022-08-21T11:09:26;25.00;90.60
20698;DHT22;10508;50.956;4.640;2022-08-21T11:14:51;25.00;89.30
20698;DHT22;10508;50.956;4.640;2022-08-21T11:17:24;25.20;88.00
20698;DHT22;10508;50.956;4.640;2022-08-21T11:20:02;25.50;88.30
20698;DHT22;10508;50.956;4.640;2022-08-21T11:25:50;25.20;89.70
20698;DHT22;10508;50.956;4.640;2022-08-21T11:28:24;24.70;87.80
20698;DHT22;10508;50.956;4.640;2022-08-21T11:31:33;24.50;90.00
20698;DHT22;10508;50.956;4.640;2022-08-21T11:42:37;24.30;90.00
20698;DHT22;10508;50.956;4.640;2022-08-21T11:45:27;24.10;90.00
20698;DHT22;10508;50.956;4.640;2022-08-21T11:50:29;24.70;88.50
20698;DHT22;10508;50.956;4.640;2022-08-21T11:53:09;25.30;88.90
20698;DHT22;10508;50.956;4.640;2022-08-21T11:55:41;25.80;85.10
20698;DHT22;10508;50.956;4.640;2022-08-21T11:58:15;26.20;85.30
20698;DHT22;10508;50.956;4.640;2022-08-21T12:00:55;26.40;86.60
20698;DHT22;10508;50.956;4.640;2022-08-21T12:08:31;27.20;83.70
20698;DHT22;10508;50.956;4.640;2022-08-21T12:11:09;27.40;83.50
20698;DHT22;10508;50.956;4.640;2022-08-21T12:13:38;27.40;80.80
20698;DHT22;10508;50.956;4.640;2022-08-21T12:16:15;27.10;81.70
20698;DHT22;10508;50.956;4.640;2022-08-21T12:18:42;27.10;84.60
20698;DHT22;10508;50.956;4.640;2022-08-21T12:21:22;26.80;81.30
20698;DHT22;10508;50.956;4.640;2022-08-21T12:24:49;26.60;82.70
20698;DHT22;10508;50.956;4.640;2022-08-21T12:29:35;26.60;82.20
20698;DHT22;10508;50.956;4.640;2022-08-21T12:32:24;27.00;79.60
20698;DHT22;10508;50.956;4.640;2022-08-21T12:37:41;27.20;79.70
20698;DHT22;10508;50.956;4.640;2022-08-21T12:40:25;26.90;80.10
20698;DHT22;10508;50.956;4.640;2022-08-21T12:42:55;26.50;80.90
20698;DHT22;10508;50.956;4.640;2022-08-21T12:45:32;26.30;81.70
20698;DHT22;10508;50.956;4.640;2022-08-21T12:48:05;26.20;80.70
20698;DHT22;10508;50.956;4.640;2022-08-21T12:50:53;26.00;80.40
20698;DHT22;10508;50.956;4.640;2022-08-21T12:55:57;26.00;83.00
20698;DHT22;10508;50.956;4.640;2022-08-21T12:58:27;26.00;80.40
20698;DHT22;10508;50.956;4.640;2022-08-21T13:01:00;26.00;80.70
20698;DHT22;10508;50.956;4.640;2022-08-21T13:03:27;26.00;81.80
20698;DHT22;10508;50.956;4.640;2022-08-21T13:05:53;25.90;83.00
20698;DHT22;10508;50.956;4.640;2022-08-21T13:08:21;25.90;82.40
20698;DHT22;10508;50.956;4.640;2022-08-21T13:10:49;26.10;82.40
20698;DHT22;10508;50.956;4.640;2022-08-21T13:13:24;26.30;80.30
20698;DHT22;10508;50.956;4.640;2022-08-21T13:16:04;26.50;80.80
20698;DHT22;10508;50.956;4.640;2022-08-21T13:18:33;26.50;78.30
20698;DHT22;10508;50.956;4.640;2022-08-21T13:21:07;26.30;78.00
20698;DHT22;10508;50.956;4.640;2022-08-21T13:23:35;26.10;79.70
20698;DHT22;10508;50.956;4.640;2022-08-21T13:26:01;25.90;80.40
20698;DHT22;10508;50.956;4.640;2022-08-21T13:28:34;25.70;80.80
20698;DHT22;10508;50.956;4.640;2022-08-21T13:31:01;25.50;81.10
20698;DHT22;10508;50.956;4.640;2022-08-21T13:33:31;25.50;83.10
20698;DHT22;10508;50.956;4.640;2022-08-21T13:38:29;25.40;81.20
20698;DHT22;10508;50.956;4.640;2022-08-21T13:40:59;25.30;83.70
20698;DHT22;10508;50.956;4.640;2022-08-21T13:43:30;25.40;81.90
20698;DHT22;10508;50.956;4.640;2022-08-21T13:45:57;25.70;81.50
20698;DHT22;10508;50.956;4.640;2022-08-21T13:48:27;25.60;82.30
20698;DHT22;10508;50.956;4.640;2022-08-21T13:50:54;25.70;82.70
20698;DHT22;10508;50.956;4.640;2022-08-21T13:53:31;25.80;79.80
20698;DHT22;10508;50.956;4.640;2022-08-21T13:55:58;25.90;80.10
20698;DHT22;10508;50.956;4.640;2022-08-21T13:58:27;26.10;81.20
20698;DHT22;10508;50.956;4.640;2022-08-21T14:00:54;26.30;80.00
20698;DHT22;10508;50.956;4.640;2022-08-21T14:03:42;26.40;79.10
20698;DHT22;10508;50.956;4.640;2022-08-21T14:06:12;26.40;78.50
20698;DHT22;10508;50.956;4.640;2022-08-21T14:08:39;26.30;78.30
20698;DHT22;10508;50.956;4.640;2022-08-21T14:11:11;26.40;77.40
20698;DHT22;10508;50.956;4.640;2022-08-21T14:13:47;26.80;77.00
20698;DHT22;10508;50.956;4.640;2022-08-21T14:16:26;27.00;78.00
20698;DHT22;10508;50.956;4.640;2022-08-21T14:19:08;27.20;77.70
20698;DHT22;10508;50.956;4.640;2022-08-21T14:21:41;27.30;78.00
20698;DHT22;10508;50.956;4.640;2022-08-21T14:26:51;27.40;76.70
20698;DHT22;10508;50.956;4.640;2022-08-21T14:29:19;27.50;76.60
20698;DHT22;10508;50.956;4.640;2022-08-21T14:31:57;27.40;75.50
20698;DHT22;10508;50.956;4.640;2022-08-21T14:34:26;27.50;75.60
20698;DHT22;10508;50.956;4.640;2022-08-21T14:36:53;27.40;73.00
20698;DHT22;10508;50.956;4.640;2022-08-21T14:39:19;27.40;73.40
20698;DHT22;10508;50.956;4.640;2022-08-21T14:41:45;27.10;73.30
20698;DHT22;10508;50.956;4.640;2022-08-21T14:44:14;27.20;74.70
20698;DHT22;10508;50.956;4.640;2022-08-21T14:46:40;27.50;75.50
20698;DHT22;10508;50.956;4.640;2022-08-21T14:49:05;27.70;74.00
20698;DHT22;10508;50.956;4.640;2022-08-21T14:51:31;27.40;74.50
20698;DHT22;10508;50.956;4.640;2022-08-21T14:53:57;27.30;75.80
20698;DHT22;10508;50.956;4.640;2022-08-21T14:56:23;26.90;75.40
20698;DHT22;10508;50.956;4.640;2022-08-21T14:58:51;26.70;76.20
20698;DHT22;10508;50.956;4.640;2022-08-21T15:01:20;26.50;76.10
20698;DHT22;10508;50.956;4.640;2022-08-21T15:03:46;26.20;77.20
20698;DHT22;10508;50.956;4.640;2022-08-21T15:06:14;26.20;76.90
20698;DHT22;10508;50.956;4.640;2022-08-21T15:08:39;26.10;77.40
20698;DHT22;10508;50.956;4.640;2022-08-21T15:11:06;26.00;78.20
20698;DHT22;10508;50.956;4.640;2022-08-21T15:13:31;26.00;78.10
20698;DHT22;10508;50.956;4.640;2022-08-21T15:15:58;26.00;78.70
20698;DHT22;10508;50.956;4.640;2022-08-21T15:18:25;26.10;79.90
20698;DHT22;10508;50.956;4.640;2022-08-21T15:20:51;26.10;77.90
20698;DHT22;10508;50.956;4.640;2022-08-21T15:23:18;25.90;78.70
20698;DHT22;10508;50.956;4.640;2022-08-21T15:25:46;25.80;77.70
20698;DHT22;10508;50.956;4.640;2022-08-21T15:28:13;25.90;79.30
20698;DHT22;10508;50.956;4.640;2022-08-21T15:30:43;25.80;77.10
20698;DHT22;10508;50.956;4.640;2022-08-21T15:33:09;25.70;78.10
20698;DHT22;10508;50.956;4.640;2022-08-21T15:35:35;25.60;78.40
20698;DHT22;10508;50.956;4.640;2022-08-21T15:38:01;25.40;78.50
20698;DHT22;10508;50.956;4.640;2022-08-21T15:40:27;25.50;78.90
20698;DHT22;10508;50.956;4.640;2022-08-21T15:43:01;25.40;78.60
20698;DHT22;10508;50.956;4.640;2022-08-21T15:45:28;25.40;78.00
20698;DHT22;10508;50.956;4.640;2022-08-21T15:47:54;25.20;79.00
20698;DHT22;10508;50.956;4.640;2022-08-21T15:50:20;25.20;77.90
20698;DHT22;10508;50.956;4.640;2022-08-21T15:52:46;25.20;79.30
20698;DHT22;10508;50.956;4.640;2022-08-21T15:55:12;25.20;78.30
20698;DHT22;10508;50.956;4.640;2022-08-21T15:57:42;25.10;79.20
20698;DHT22;10508;50.956;4.640;2022-08-21T16:00:14;25.20;80.00
20698;DHT22;10508;50.956;4.640;2022-08-21T16:02:43;25.20;78.40
20698;DHT22;10508;50.956;4.640;2022-08-21T16:05:10;25.20;78.10
20698;DHT22;10508;50.956;4.640;2022-08-21T16:07:38;25.30;79.10
20698;DHT22;10508;50.956;4.640;2022-08-21T16:10:05;25.20;79.20
20698;DHT22;10508;50.956;4.640;2022-08-21T16:12:35;25.10;80.00
20698;DHT22;10508;50.956;4.640;2022-08-21T16:15:05;24.90;78.80
20698;DHT22;10508;50.956;4.640;2022-08-21T16:17:34;24.80;79.80
20698;DHT22;10508;50.956;4.640;2022-08-21T16:20:06;24.70;83.40
20698;DHT22;10508;50.956;4.640;2022-08-21T16:22:32;24.80;79.80
20698;DHT22;10508;50.956;4.640;2022-08-21T16:24:58;24.90;80.70
20698;DHT22;10508;50.956;4.640;2022-08-21T16:27:24;24.90;79.80
20698;DHT22;10508;50.956;4.640;2022-08-21T16:29:49;24.90;81.80
20698;DHT22;10508;50.956;4.640;2022-08-21T16:32:16;24.80;80.60
20698;DHT22;10508;50.956;4.640;2022-08-21T16:34:46;24.80;82.30
20698;DHT22;10508;50.956;4.640;2022-08-21T16:37:14;24.70;83.70
20698;DHT22;10508;50.956;4.640;2022-08-21T16:39:40;24.60;82.30
20698;DHT22;10508;50.956;4.640;2022-08-21T16:42:05;24.60;83.60
20698;DHT22;10508;50.956;4.640;2022-08-21T16:44:31;24.60;81.60
20698;DHT22;10508;50.956;4.640;2022-08-21T16:46:58;24.60;82.30
20698;DHT22;10508;50.956;4.640;2022-08-21T16:49:24;24.60;84.20
20698;DHT22;10508;50.956;4.640;2022-08-21T16:51:50;24.50;84.00
20698;DHT22;10508;50.956;4.640;2022-08-21T16:54:15;24.60;84.20
20698;DHT22;10508;50.956;4.640;2022-08-21T16:56:41;24.50;84.90
20698;DHT22;10508;50.956;4.640;2022-08-21T16:59:06;24.30;85.40
20698;DHT22;10508;50.956;4.640;2022-08-21T17:01:33;24.30;84.30
20698;DHT22;10508;50.956;4.640;2022-08-21T17:03:59;24.30;85.60
20698;DHT22;10508;50.956;4.640;2022-08-21T17:06:25;24.20;86.20
20698;DHT22;10508;50.956;4.640;2022-08-21T17:08:51;24.20;87.00